Time;durP1;ratioP1;P1;durP2;ratioP2;P2;SDS_P1;SDS_P2;PMS_P1;PMS_P2;Temp;Humidity;BMP_temperature;BMP_pressure;BME280_temperature;BME280_humidity;BME280_pressure;Samples;Min_cycle;Max_cycle;Signal;HPM_P1;HPM_P2
2024/04/17 00:01:17;;;;;;;10.95;2.65;;;12.90;84.10;;;;;;5548818;25;20009;-74
2024/04/17 00:03:43;;;;;;;4.22;1.60;;;12.80;84.00;;;;;;5540449;25;20000;-74
2024/04/17 00:06:09;;;;;;;9.00;3.53;;;12.80;84.20;;;;;;5550528;25;20000;-74
2024/04/17 00:08:34;;;;;;;8.82;1.85;;;12.80;84.20;;;;;;5535110;25;20029;-74
2024/04/17 00:11:00;;;;;;;6.90;2.03;;;12.70;84.20;;;;;;5553891;25;20001;-74
2024/04/17 00:13:26;;;;;;;6.78;1.67;;;12.80;84.40;;;;;;5529223;25;20012;-74
2024/04/17 00:15:52;;;;;;;6.45;1.48;;;12.70;84.30;;;;;;5552700;25;19997;-74
2024/04/17 00:18:18;;;;;;;9.95;1.90;;;12.70;84.40;;;;;;5552602;25;20009;-74
2024/04/17 00:20:43;;;;;;;9.80;2.00;;;12.70;84.40;;;;;;5542050;25;20621;-74
2024/04/17 00:23:09;;;;;;;10.85;2.05;;;12.70;84.30;;;;;;5554290;25;20000;-74
2024/04/17 00:25:35;;;;;;;14.15;2.05;;;12.60;84.20;;;;;;5547865;25;19993;-74
2024/04/17 00:28:00;;;;;;;4.53;1.83;;;12.60;84.20;;;;;;5553262;25;19997;-74
2024/04/17 00:30:26;;;;;;;6.43;1.85;;;12.60;84.20;;;;;;5546849;25;20008;-74
2024/04/17 00:32:52;;;;;;;15.50;1.90;;;12.60;84.10;;;;;;5544039;25;20680;-74
2024/04/17 00:35:17;;;;;;;8.45;1.80;;;12.70;84.30;;;;;;5558088;25;19993;-74
2024/04/17 00:37:44;;;;;;;7.03;1.80;;;12.60;84.20;;;;;;5554421;25;20008;-74
2024/04/17 00:40:09;;;;;;;5.05;1.63;;;12.60;84.30;;;;;;5539149;25;20008;-74
2024/04/17 00:42:35;;;;;;;5.63;2.03;;;12.60;84.20;;;;;;5548745;25;20004;-74
2024/04/17 00:45:01;;;;;;;14.98;1.75;;;12.60;84.30;;;;;;5549632;25;20576;-74
2024/04/17 00:47:27;;;;;;;11.55;2.05;;;12.50;84.20;;;;;;5546804;25;19994;-74
2024/04/17 00:49:54;;;;;;;8.05;2.08;;;12.50;84.10;;;;;;5556226;25;19997;-74
2024/04/17 00:52:20;;;;;;;8.40;1.90;;;12.60;84.10;;;;;;5543117;25;20012;-74
2024/04/17 00:54:46;;;;;;;5.40;1.73;;;12.60;84.10;;;;;;5557539;25;20016;-74
2024/04/17 00:57:14;;;;;;;7.85;1.73;;;12.50;84.10;;;;;;5545133;25;20340;-74
2024/04/17 00:59:42;;;;;;;7.25;1.63;;;12.50;84.00;;;;;;5540355;25;19996;-74
2024/04/17 01:02:08;;;;;;;5.82;1.48;;;12.50;84.10;;;;;;5539345;25;20145;-74
2024/04/17 01:04:33;;;;;;;12.32;2.00;;;12.50;84.10;;;;;;5541455;25;20000;-74
2024/04/17 01:07:00;;;;;;;7.28;2.00;;;12.50;84.10;;;;;;5528702;25;19994;-74
2024/04/17 01:09:25;;;;;;;5.80;1.77;;;12.50;84.70;;;;;;5535552;25;20459;-74
2024/04/17 01:11:52;;;;;;;5.57;2.03;;;12.50;85.40;;;;;;5543038;25;19988;-74
2024/04/17 01:14:17;;;;;;;5.95;1.20;;;12.50;85.80;;;;;;5548447;25;19996;-74
2024/04/17 01:16:43;;;;;;;5.55;1.67;;;12.40;86.40;;;;;;5542582;25;20011;-74
2024/04/17 01:19:10;;;;;;;219.63;9.70;;;12.40;87.30;;;;;;5539324;25;19994;-74
2024/04/17 01:21:36;;;;;;;207.80;7.78;;;12.30;89.80;;;;;;5545413;25;20008;-74
2024/04/17 01:24:02;;;;;;;60.60;3.97;;;12.10;89.80;;;;;;5531029;25;20011;-74
2024/04/17 01:26:27;;;;;;;3.20;1.17;;;12.00;90.10;;;;;;5534964;25;19997;-74
2024/04/17 01:28:53;;;;;;;4.20;1.60;;;11.90;90.20;;;;;;5543959;25;19992;-74
2024/04/17 01:31:19;;;;;;;6.85;1.35;;;11.90;90.30;;;;;;5541562;25;19996;-74
2024/04/17 01:33:45;;;;;;;63.03;3.90;;;11.90;90.30;;;;;;5532244;25;20591;-74
2024/04/17 01:36:13;;;;;;;1.45;0.98;;;11.90;90.50;;;;;;5549832;25;20068;-74
2024/04/17 01:38:39;;;;;;;4.43;1.00;;;11.90;90.60;;;;;;5538269;25;20008;-74
2024/04/17 01:41:05;;;;;;;6.40;1.13;;;11.90;90.70;;;;;;5530546;25;20049;-74
2024/04/17 01:43:31;;;;;;;65.03;3.45;;;11.90;91.10;;;;;;5534987;25;20009;-74
2024/04/17 01:45:58;;;;;;;4.47;1.02;;;11.90;90.80;;;;;;5552294;25;20073;-74
2024/04/17 01:48:24;;;;;;;3.45;1.05;;;11.90;90.90;;;;;;5549954;25;20016;-74
2024/04/17 01:50:50;;;;;;;61.38;3.47;;;11.80;90.90;;;;;;5551175;25;20001;-73
2024/04/17 01:53:16;;;;;;;4.22;1.45;;;11.90;91.00;;;;;;5557385;25;20011;-74
2024/04/17 01:55:43;;;;;;;3.30;1.10;;;11.80;90.90;;;;;;5536521;25;20014;-74
2024/04/17 01:58:09;;;;;;;4.78;1.10;;;11.90;90.90;;;;;;5527988;25;20036;-74
2024/04/17 02:00:35;;;;;;;1.90;0.85;;;11.90;90.90;;;;;;5543074;25;20064;-74
2024/04/17 02:03:02;;;;;;;85.70;6.45;;;11.90;90.90;;;;;;5538208;25;20080;-74
2024/04/17 02:05:27;;;;;;;4.72;1.20;;;11.90;91.00;;;;;;5541076;25;19997;-74
2024/04/17 02:07:53;;;;;;;9.98;1.45;;;11.90;90.90;;;;;;5537111;25;20076;-74
2024/04/17 02:10:19;;;;;;;2.25;1.15;;;11.90;90.80;;;;;;5534302;25;20012;-74
2024/04/17 02:12:44;;;;;;;5.80;1.63;;;11.90;90.70;;;;;;5536029;25;19993;-74
2024/04/17 02:15:10;;;;;;;45.97;2.45;;;12.00;90.60;;;;;;5532190;25;20321;-74
2024/04/17 02:17:35;;;;;;;3.30;1.35;;;12.00;90.50;;;;;;5553383;25;19992;-74
2024/04/17 02:20:03;;;;;;;2.28;1.00;;;12.00;90.50;;;;;;5548667;25;20472;-74
2024/04/17 02:22:29;;;;;;;6.47;1.45;;;12.00;90.70;;;;;;5546242;25;20049;-74
2024/04/17 02:24:55;;;;;;;1.00;0.98;;;12.00;90.30;;;;;;5551779;25;20009;-74
2024/04/17 02:27:20;;;;;;;60.22;3.60;;;12.10;90.20;;;;;;5544778;25;20347;-75
2024/04/17 02:29:47;;;;;;;2.70;0.98;;;12.00;90.20;;;;;;5536522;25;20012;-74
2024/04/17 02:32:13;;;;;;;2.15;1.17;;;12.10;90.30;;;;;;5553013;25;20083;-74
2024/04/17 02:34:39;;;;;;;1.95;0.85;;;12.10;90.40;;;;;;5549382;25;20001;-74
2024/04/17 02:37:05;;;;;;;4.88;1.30;;;12.10;90.40;;;;;;5554558;25;20012;-74
2024/04/17 02:39:30;;;;;;;3.60;1.60;;;12.10;90.40;;;;;;5541544;25;20005;-74
2024/04/17 02:41:59;;;;;;;5.05;1.40;;;12.00;90.20;;;;;;5540653;25;20008;-74
2024/04/17 02:44:24;;;;;;;5.22;1.30;;;12.10;90.10;;;;;;5544115;25;20009;-74
2024/04/17 02:46:50;;;;;;;4.68;1.85;;;12.10;90.10;;;;;;5551708;25;20075;-74
2024/04/17 02:49:15;;;;;;;1.88;1.15;;;12.10;90.00;;;;;;5550864;25;20420;-74
2024/04/17 02:51:42;;;;;;;4.30;1.17;;;12.10;90.00;;;;;;5536719;25;20337;-74
2024/04/17 02:54:07;;;;;;;4.55;1.23;;;12.10;90.00;;;;;;5556629;25;19993;-74
2024/04/17 02:56:33;;;;;;;4.75;1.58;;;12.00;89.90;;;;;;5551908;25;20076;-74
2024/04/17 02:58:59;;;;;;;2.90;0.98;;;12.00;89.80;;;;;;5551594;25;20238;-74
2024/04/17 03:01:24;;;;;;;2.65;1.45;;;12.00;89.60;;;;;;5544398;25;20000;-74
2024/04/17 03:03:50;;;;;;;5.40;1.00;;;12.00;89.40;;;;;;5545844;25;19997;-74
2024/04/17 03:06:15;;;;;;;3.03;1.13;;;12.00;89.20;;;;;;5544829;25;20011;-74
2024/04/17 03:08:41;;;;;;;3.42;1.50;;;12.00;89.10;;;;;;5551208;25;19997;-74
2024/04/17 03:11:07;;;;;;;3.40;0.95;;;12.00;89.00;;;;;;5546950;25;20003;-75
2024/04/17 03:13:32;;;;;;;3.17;1.20;;;12.10;88.90;;;;;;5548750;25;20042;-74
2024/04/17 03:16:02;;;;;;;3.00;1.10;;;12.00;88.70;;;;;;5550346;25;20332;-74
2024/04/17 03:18:28;;;;;;;1.55;1.05;;;12.00;88.60;;;;;;5549620;25;19997;-74
2024/04/17 03:20:59;;;;;;;2.38;1.00;;;12.00;88.70;;;;;;5537760;25;19992;-74
2024/04/17 03:23:24;;;;;;;2.85;1.05;;;11.90;89.00;;;;;;5530221;25;20001;-74
2024/04/17 03:25:57;;;;;;;1.90;1.10;;;11.90;89.10;;;;;;5557671;25;20004;-74
2024/04/17 03:28:24;;;;;;;5.07;1.23;;;11.90;89.00;;;;;;5555469;25;20000;-74
2024/04/17 03:30:50;;;;;;;1.88;1.05;;;11.90;89.10;;;;;;5547337;25;20337;-74
2024/04/17 03:33:16;;;;;;;5.65;1.67;;;12.00;89.10;;;;;;5530545;25;20071;-74
2024/04/17 03:35:42;;;;;;;4.32;1.27;;;11.90;89.00;;;;;;5552969;25;20525;-74
2024/04/17 03:38:08;;;;;;;3.53;1.33;;;11.90;89.10;;;;;;5552235;25;20010;-74
2024/04/17 03:40:33;;;;;;;3.65;1.10;;;12.00;89.00;;;;;;5539846;25;20000;-74
2024/04/17 03:42:59;;;;;;;1.23;0.90;;;12.00;88.90;;;;;;5554182;25;20076;-74
2024/04/17 03:45:25;;;;;;;2.72;1.00;;;12.00;88.90;;;;;;5531929;25;20120;-74
2024/04/17 03:47:50;;;;;;;2.88;1.00;;;12.10;88.80;;;;;;5549280;25;19997;-74
2024/04/17 03:50:16;;;;;;;2.15;0.75;;;12.10;88.70;;;;;;5539049;25;20016;-74
2024/04/17 03:52:42;;;;;;;2.60;0.80;;;12.10;88.80;;;;;;5534472;25;19993;-74
2024/04/17 03:55:07;;;;;;;3.28;0.93;;;12.10;88.70;;;;;;5543430;25;20001;-74
2024/04/17 03:57:33;;;;;;;1.58;0.80;;;12.10;88.70;;;;;;5549760;25;20058;-74
2024/04/17 03:59:58;;;;;;;3.33;1.13;;;12.10;88.70;;;;;;5558244;25;20015;-74
2024/04/17 04:02:24;;;;;;;2.28;1.00;;;12.20;88.70;;;;;;5548177;25;20002;-74
2024/04/17 04:04:50;;;;;;;7.57;0.77;;;12.30;88.70;;;;;;5556775;25;19997;-74
2024/04/17 04:07:16;;;;;;;8.07;1.20;;;12.20;88.70;;;;;;5551213;25;20004;-74
2024/04/17 04:09:41;;;;;;;2.50;0.90;;;12.20;88.70;;;;;;5548388;25;20463;-74
2024/04/17 04:12:07;;;;;;;4.00;0.98;;;12.30;88.80;;;;;;5536513;25;20427;-74
2024/04/17 04:14:33;;;;;;;4.00;0.90;;;12.30;88.90;;;;;;5540669;25;20068;-74
2024/04/17 04:16:58;;;;;;;3.20;0.82;;;12.20;89.00;;;;;;5546096;25;20008;-74
2024/04/17 04:19:24;;;;;;;10.32;1.02;;;12.30;89.00;;;;;;5523826;25;20005;-74
2024/04/17 04:21:50;;;;;;;2.97;0.90;;;12.20;89.00;;;;;;5542480;25;20008;-74
2024/04/17 04:24:15;;;;;;;1.35;0.90;;;12.10;89.40;;;;;;5532381;25;20008;-74
2024/04/17 04:26:41;;;;;;;2.90;0.90;;;12.00;90.00;;;;;;5535580;25;20001;-74
2024/04/17 04:29:07;;;;;;;2.78;1.10;;;12.00;90.10;;;;;;5534429;25;20520;-75
2024/04/17 04:31:33;;;;;;;1.83;1.05;;;11.90;90.20;;;;;;5553560;25;20074;-74
2024/04/17 04:33:59;;;;;;;2.67;1.52;;;11.90;90.20;;;;;;5554787;25;20068;-74
2024/04/17 04:36:25;;;;;;;0.80;0.80;;;11.90;90.50;;;;;;5541966;25;20477;-73
2024/04/17 04:38:50;;;;;;;6.30;0.80;;;11.90;90.30;;;;;;5541261;25;19996;-73
2024/04/17 04:41:17;;;;;;;4.63;1.17;;;12.00;90.30;;;;;;5544081;25;20054;-73
2024/04/17 04:43:43;;;;;;;1.50;0.82;;;12.10;90.20;;;;;;5541119;25;20025;-74
2024/04/17 04:46:09;;;;;;;2.22;0.93;;;12.20;90.10;;;;;;5541862;25;20012;-74
2024/04/17 04:48:35;;;;;;;2.70;0.80;;;12.20;90.00;;;;;;5535346;25;20000;-73
2024/04/17 04:51:00;;;;;;;4.07;1.00;;;12.20;90.00;;;;;;5534289;25;20007;-74
2024/04/17 04:53:26;;;;;;;3.08;0.80;;;12.20;90.00;;;;;;5542594;25;20450;-74
2024/04/17 04:55:59;;;;;;;5.45;1.50;;;12.20;90.10;;;;;;5543219;25;19996;-73
2024/04/17 04:58:25;;;;;;;2.90;0.90;;;12.10;90.10;;;;;;5539045;25;20066;-74
2024/04/17 05:00:52;;;;;;;1.00;0.80;;;12.20;90.10;;;;;;5546806;25;19996;-72
2024/04/17 05:03:18;;;;;;;3.42;0.82;;;12.20;90.10;;;;;;5542457;25;21108;-74
2024/04/17 05:05:44;;;;;;;3.65;0.80;;;12.10;90.10;;;;;;5552743;25;19996;-74
2024/04/17 05:08:13;;;;;;;1.30;0.80;;;12.20;90.10;;;;;;5549686;25;19996;-74
2024/04/17 05:10:38;;;;;;;0.85;0.70;;;12.20;90.00;;;;;;5539485;25;20012;-74
2024/04/17 05:13:04;;;;;;;1.52;0.93;;;12.20;90.00;;;;;;5541808;25;20024;-74
2024/04/17 05:15:30;;;;;;;3.10;0.90;;;12.20;90.00;;;;;;5539982;25;20471;-74
2024/04/17 05:17:56;;;;;;;0.75;0.60;;;12.20;90.00;;;;;;5537928;25;20012;-75
2024/04/17 05:20:22;;;;;;;1.00;0.73;;;12.20;90.10;;;;;;5540710;25;20041;-74
2024/04/17 05:22:47;;;;;;;3.40;1.17;;;12.10;90.10;;;;;;5542789;25;20004;-75
2024/04/17 05:25:15;;;;;;;2.30;0.52;;;12.10;90.10;;;;;;5538865;25;20049;-75
2024/04/17 05:27:41;;;;;;;0.82;0.50;;;12.10;90.20;;;;;;5543968;25;20001;-74
2024/04/17 05:30:09;;;;;;;3.28;0.65;;;12.10;90.20;;;;;;5538490;25;20015;-75
2024/04/17 05:32:34;;;;;;;1.60;0.60;;;12.00;90.20;;;;;;5536271;25;20392;-74
2024/04/17 05:35:00;;;;;;;1.80;0.70;;;12.00;90.20;;;;;;5527747;25;20005;-75
2024/04/17 05:37:26;;;;;;;4.25;1.17;;;12.00;90.30;;;;;;5535219;25;20414;-74
2024/04/17 05:39:51;;;;;;;0.80;0.80;;;12.00;90.40;;;;;;5533990;25;19997;-74
2024/04/17 05:42:17;;;;;;;1.88;0.70;;;12.00;90.40;;;;;;5532244;25;20004;-75
2024/04/17 05:44:43;;;;;;;1.58;0.80;;;12.00;90.40;;;;;;5544174;25;20028;-75
2024/04/17 05:47:09;;;;;;;2.70;0.63;;;12.00;90.30;;;;;;5538095;25;20014;-75
2024/04/17 05:49:35;;;;;;;0.90;0.80;;;12.00;90.40;;;;;;5540007;25;20416;-74
2024/04/17 05:52:00;;;;;;;2.25;0.82;;;12.10;90.40;;;;;;5535597;25;20001;-75
2024/04/17 05:54:26;;;;;;;1.17;0.77;;;12.10;90.30;;;;;;5542884;25;20012;-72
2024/04/17 05:56:51;;;;;;;3.67;0.80;;;12.10;90.30;;;;;;5535857;25;20035;-75
2024/04/17 05:59:17;;;;;;;3.03;1.00;;;12.10;90.30;;;;;;5537531;25;20455;-75
2024/04/17 06:01:43;;;;;;;1.35;0.70;;;12.20;90.30;;;;;;5533592;25;21351;-74
2024/04/17 06:04:08;;;;;;;1.02;0.60;;;12.20;90.30;;;;;;5547790;25;20436;-75
2024/04/17 06:06:34;;;;;;;2.72;0.98;;;12.20;90.30;;;;;;5542591;25;19996;-76
2024/04/17 06:09:00;;;;;;;3.50;1.38;;;12.10;90.30;;;;;;5538141;25;20025;-77
2024/04/17 06:11:26;;;;;;;4.35;0.65;;;12.00;90.60;;;;;;5537503;25;20001;-74
2024/04/17 06:13:52;;;;;;;3.53;0.57;;;11.80;91.20;;;;;;5549464;25;20649;-75
2024/04/17 06:16:17;;;;;;;2.50;1.10;;;11.70;91.50;;;;;;5548411;25;20005;-74
2024/04/17 06:18:43;;;;;;;0.77;0.70;;;11.60;91.60;;;;;;5549839;25;19996;-74
2024/04/17 06:21:09;;;;;;;1.85;0.80;;;11.50;91.40;;;;;;5548557;25;20008;-74
2024/04/17 06:23:34;;;;;;;5.90;1.02;;;11.60;91.30;;;;;;5518380;25;20001;-75
2024/04/17 06:26:00;;;;;;;3.35;0.75;;;11.60;91.20;;;;;;5531258;25;20080;-75
2024/04/17 06:28:26;;;;;;;2.60;0.70;;;11.70;91.10;;;;;;5537655;25;20012;-74
2024/04/17 06:30:51;;;;;;;4.22;1.05;;;11.80;91.00;;;;;;5535578;25;19998;-75
2024/04/17 06:33:17;;;;;;;3.20;1.10;;;11.80;91.00;;;;;;5519229;25;20002;-75
2024/04/17 06:35:42;;;;;;;1.58;0.88;;;11.80;91.00;;;;;;5521850;25;20002;-75
2024/04/17 06:38:08;;;;;;;2.97;0.82;;;11.80;90.90;;;;;;5536476;25;20373;-76
2024/04/17 06:40:34;;;;;;;1.58;0.90;;;11.80;90.80;;;;;;5518185;25;20010;-74
2024/04/17 06:43:00;;;;;;;1.33;0.75;;;11.80;91.00;;;;;;5529325;25;20347;-75
2024/04/17 06:45:26;;;;;;;3.00;0.73;;;11.70;91.40;;;;;;5530271;25;19997;-74
2024/04/17 06:47:52;;;;;;;4.03;0.80;;;11.70;91.40;;;;;;5528984;25;20012;-73
2024/04/17 06:50:17;;;;;;;2.38;0.60;;;11.60;91.30;;;;;;5522768;25;20509;-75
2024/04/17 06:52:43;;;;;;;1.50;0.85;;;11.60;91.20;;;;;;5554102;25;20011;-75
2024/04/17 06:55:09;;;;;;;1.70;0.80;;;11.60;91.20;;;;;;5553556;25;20005;-75
2024/04/17 06:57:34;;;;;;;2.05;0.82;;;11.70;91.20;;;;;;5531591;25;20352;-75
2024/04/17 07:00:00;;;;;;;4.07;1.05;;;11.80;91.00;;;;;;5558225;25;20012;-75
2024/04/17 07:02:25;;;;;;;2.70;0.95;;;11.80;90.90;;;;;;5555709;25;20034;-76
2024/04/17 07:04:51;;;;;;;3.35;0.98;;;11.80;90.90;;;;;;5541123;25;20003;-75
2024/04/17 07:07:17;;;;;;;3.25;1.50;;;11.90;90.80;;;;;;5536973;25;20059;-75
2024/04/17 07:09:42;;;;;;;6.97;1.35;;;11.90;91.00;;;;;;5521297;25;19997;-75
2024/04/17 07:12:09;;;;;;;2.28;0.80;;;11.80;90.90;;;;;;5549626;25;20543;-75
2024/04/17 07:14:34;;;;;;;2.00;0.70;;;11.80;90.90;;;;;;5537337;25;19998;-74
2024/04/17 07:17:00;;;;;;;5.90;0.98;;;11.90;90.90;;;;;;5529369;25;20047;-75
2024/04/17 07:19:25;;;;;;;6.43;1.00;;;11.90;90.90;;;;;;5519743;25;19998;-75
2024/04/17 07:21:52;;;;;;;5.65;1.20;;;11.90;90.90;;;;;;5532518;25;20001;-75
2024/04/17 07:24:18;;;;;;;3.70;1.00;;;11.90;90.90;;;;;;5533499;25;20445;-75
2024/04/17 07:26:43;;;;;;;0.82;0.70;;;11.90;90.90;;;;;;5519952;25;19997;-75
2024/04/17 07:29:09;;;;;;;9.02;1.77;;;11.90;90.90;;;;;;5547512;25;20440;-75
2024/04/17 07:31:35;;;;;;;6.82;1.38;;;11.90;90.60;;;;;;5558902;25;20321;-75
2024/04/17 07:34:00;;;;;;;8.43;1.48;;;11.80;90.50;;;;;;5553880;25;20040;-74
2024/04/17 07:36:26;;;;;;;8.52;1.58;;;11.80;90.40;;;;;;5546602;25;20461;-75
2024/04/17 07:38:51;;;;;;;12.88;1.77;;;11.90;90.40;;;;;;5541437;25;20072;-74
2024/04/17 07:41:17;;;;;;;8.07;1.70;;;11.90;90.40;;;;;;5520068;25;20016;-75
2024/04/17 07:43:43;;;;;;;7.75;0.98;;;12.00;90.30;;;;;;5545421;25;20000;-78
2024/04/17 07:46:09;;;;;;;5.95;1.55;;;12.00;90.30;;;;;;5518076;25;19997;-75
2024/04/17 07:48:34;;;;;;;7.65;1.08;;;12.00;90.30;;;;;;5543369;25;20045;-75
2024/04/17 07:51:01;;;;;;;6.72;1.35;;;12.00;90.30;;;;;;5534291;25;20364;-75
2024/04/17 07:53:27;;;;;;;7.47;2.00;;;12.00;90.30;;;;;;5542223;25;20480;-75
2024/04/17 07:55:52;;;;;;;6.93;1.10;;;12.00;90.40;;;;;;5519573;25;20012;-75
2024/04/17 07:58:18;;;;;;;5.07;1.17;;;12.00;90.60;;;;;;5519527;25;20009;-75
2024/04/17 08:00:43;;;;;;;9.10;1.23;;;11.90;90.60;;;;;;5518828;25;20005;-75
2024/04/17 08:03:11;;;;;;;55.50;3.10;;;11.90;90.60;;;;;;5539560;25;20038;-75
2024/04/17 08:05:37;;;;;;;64.90;3.67;;;11.90;90.70;;;;;;5539449;25;20041;-75
2024/04/17 08:08:04;;;;;;;3.53;0.90;;;12.00;90.80;;;;;;5539170;25;20012;-74
2024/04/17 08:10:30;;;;;;;174.57;5.65;;;11.90;90.80;;;;;;5533663;25;20510;-75
2024/04/17 08:13:11;;;;;;;64.28;2.15;;;11.90;90.80;;;;;;5531099;25;20020;-75
2024/04/17 08:15:40;;;;;;;3.92;1.10;;;11.90;90.80;;;;;;5538410;25;19997;-75
2024/04/17 08:18:06;;;;;;;6.93;1.10;;;12.00;90.70;;;;;;5523783;25;20001;-74
2024/04/17 08:20:31;;;;;;;8.43;1.52;;;11.90;90.60;;;;;;5520420;25;20076;-75
2024/04/17 08:22:57;;;;;;;5.78;1.25;;;12.00;90.60;;;;;;5521713;25;20009;-76
2024/04/17 08:25:23;;;;;;;6.20;1.25;;;11.90;90.40;;;;;;5548803;25;20019;-76
2024/04/17 08:27:48;;;;;;;4.78;0.98;;;12.00;90.30;;;;;;5529264;25;20009;-75
2024/04/17 08:30:14;;;;;;;3.00;1.25;;;12.00;90.30;;;;;;5536267;25;20010;-75
2024/04/17 08:32:43;;;;;;;62.75;3.38;;;12.00;90.40;;;;;;5539560;25;20001;-75
2024/04/17 08:35:09;;;;;;;8.55;1.52;;;12.00;90.80;;;;;;5528567;25;19997;-75
2024/04/17 08:37:36;;;;;;;8.82;1.02;;;11.90;91.00;;;;;;5520211;25;20009;-73
2024/04/17 08:40:06;;;;;;;8.05;1.65;;;11.80;91.60;;;;;;5533066;25;19997;-75
2024/04/17 08:42:35;;;;;;;5.18;1.30;;;11.70;91.90;;;;;;5547998;25;20009;-75
2024/04/17 08:45:11;;;;;;;5.50;1.52;;;11.60;91.70;;;;;;5532241;25;20065;-75
2024/04/17 08:47:39;;;;;;;4.47;1.27;;;11.70;92.20;;;;;;5519739;25;20001;-75
2024/04/17 08:50:05;;;;;;;5.35;1.13;;;11.60;92.20;;;;;;5544033;25;20012;-75
2024/04/17 08:52:34;;;;;;;6.80;1.83;;;11.60;92.60;;;;;;5521127;25;20002;-75
2024/04/17 08:55:00;;;;;;;7.18;1.42;;;11.60;92.30;;;;;;5556060;25;20005;-76
2024/04/17 08:57:26;;;;;;;4.18;0.95;;;11.60;92.70;;;;;;5526276;25;19993;-75
2024/04/17 08:59:52;;;;;;;66.10;3.92;;;11.50;93.00;;;;;;5542085;25;20015;-76
2024/04/17 09:02:18;;;;;;;62.72;4.13;;;11.40;92.90;;;;;;5541831;25;20428;-75
2024/04/17 09:04:45;;;;;;;9.63;1.60;;;11.40;92.70;;;;;;5534051;25;20008;-75
2024/04/17 09:07:12;;;;;;;5.43;1.25;;;11.50;92.80;;;;;;5544444;25;20001;-75
2024/04/17 09:09:40;;;;;;;4.28;1.55;;;11.50;93.00;;;;;;5529884;25;20009;-76
2024/04/17 09:12:10;;;;;;;10.52;2.08;;;11.50;93.60;;;;;;5518382;25;19999;-75
2024/04/17 09:14:35;;;;;;;5.22;2.35;;;11.50;93.30;;;;;;5542391;25;19997;-75
2024/04/17 09:17:01;;;;;;;9.25;1.30;;;11.40;93.30;;;;;;5542544;25;20001;-75
2024/04/17 09:19:27;;;;;;;10.85;2.45;;;11.40;93.10;;;;;;5519258;25;20013;-75
2024/04/17 09:21:53;;;;;;;60.88;2.80;;;11.40;93.50;;;;;;5520697;25;20009;-75
2024/04/17 09:24:18;;;;;;;9.60;1.58;;;11.50;93.30;;;;;;5522627;25;19998;-76
2024/04/17 09:26:44;;;;;;;8.77;1.33;;;11.50;93.10;;;;;;5540208;25;20007;-75
2024/04/17 09:29:14;;;;;;;8.45;1.30;;;11.60;93.40;;;;;;5540293;25;20441;-75
2024/04/17 09:31:43;;;;;;;8.38;1.55;;;11.60;93.00;;;;;;5520550;25;20353;-75
2024/04/17 09:34:08;;;;;;;64.03;3.15;;;11.50;93.50;;;;;;5519739;25;20474;-75
2024/04/17 09:36:34;;;;;;;10.80;1.60;;;11.60;92.90;;;;;;5518969;25;20006;-75
2024/04/17 09:39:09;;;;;;;7.20;1.20;;;11.60;93.10;;;;;;5519994;25;20037;-76
2024/04/17 09:41:40;;;;;;;5.68;0.95;;;11.60;93.30;;;;;;5519576;25;20005;-76
2024/04/17 09:44:08;;;;;;;54.65;1.83;;;11.70;92.00;;;;;;5517758;25;20516;-76
2024/04/17 09:46:34;;;;;;;4.20;1.40;;;11.70;91.50;;;;;;5541537;25;20008;-75
2024/04/17 09:49:04;;;;;;;5.15;1.30;;;11.90;92.40;;;;;;5516759;25;20001;-75
2024/04/17 09:51:35;;;;;;;5.00;2.25;;;11.90;92.80;;;;;;5521369;25;20449;-76
2024/04/17 09:54:02;;;;;;;324.10;17.85;;;11.90;92.50;;;;;;5533604;25;20073;-76
2024/04/17 09:56:29;;;;;;;5.88;1.35;;;12.00;91.70;;;;;;5518924;25;20534;-75
2024/04/17 09:58:56;;;;;;;5.18;1.02;;;12.10;91.70;;;;;;5518846;25;19998;-76
2024/04/17 10:01:22;;;;;;;8.73;1.60;;;12.10;92.50;;;;;;5539711;25;20005;-75
2024/04/17 10:03:49;;;;;;;13.35;1.55;;;12.10;92.70;;;;;;5537100;25;20015;-76
2024/04/17 10:06:15;;;;;;;5.97;1.30;;;12.00;92.90;;;;;;5534457;25;20073;-75
2024/04/17 10:08:42;;;;;;;24.92;2.60;;;12.00;92.20;;;;;;5535447;25;19998;-75
2024/04/17 10:11:09;;;;;;;9.75;1.80;;;12.10;92.50;;;;;;5528455;25;19993;-75
2024/04/17 10:13:35;;;;;;;10.77;1.67;;;12.10;92.70;;;;;;5547782;25;20008;-75
2024/04/17 10:16:01;;;;;;;9.63;2.30;;;12.10;92.90;;;;;;5552398;25;20448;-75
2024/04/17 10:18:27;;;;;;;7.60;2.00;;;12.20;92.30;;;;;;5534958;25;20054;-79
2024/04/17 10:20:56;;;;;;;7.68;1.30;;;12.20;92.00;;;;;;5538098;25;20459;-76
2024/04/17 10:23:26;;;;;;;6.95;1.30;;;12.30;92.10;;;;;;5519957;25;20001;-76
2024/04/17 10:25:56;;;;;;;68.20;3.72;;;12.30;90.80;;;;;;5532553;25;20001;-75
2024/04/17 10:28:23;;;;;;;9.00;1.83;;;12.40;91.50;;;;;;5540920;25;20008;-76
2024/04/17 10:30:51;;;;;;;7.90;1.42;;;12.50;90.90;;;;;;5529366;25;20009;-76
2024/04/17 10:33:18;;;;;;;4.22;1.23;;;12.50;91.60;;;;;;5523953;25;20009;-76
2024/04/17 10:35:48;;;;;;;8.23;1.60;;;12.50;91.40;;;;;;5539645;25;20337;-76
2024/04/17 10:38:14;;;;;;;10.07;1.35;;;12.50;92.20;;;;;;5536057;25;19997;-76
2024/04/17 10:40:40;;;;;;;7.47;1.35;;;12.60;91.20;;;;;;5542666;25;19997;-76
2024/04/17 10:43:06;;;;;;;61.25;3.88;;;12.60;90.80;;;;;;5522273;25;20012;-75
2024/04/17 10:45:32;;;;;;;4.35;0.88;;;12.70;91.50;;;;;;5533006;25;20012;-76
2024/04/17 10:48:03;;;;;;;2.17;0.90;;;12.70;91.90;;;;;;5558826;25;20071;-75
2024/04/17 10:50:29;;;;;;;10.60;1.15;;;12.70;91.40;;;;;;5549275;25;20061;-75
2024/04/17 10:52:57;;;;;;;4.70;1.05;;;12.70;92.10;;;;;;5528890;25;20392;-76
2024/04/17 10:55:24;;;;;;;8.35;1.20;;;12.70;92.20;;;;;;5543878;25;20008;-75
2024/04/17 10:57:50;;;;;;;8.65;2.05;;;12.70;92.10;;;;;;5528661;25;20000;-76
2024/04/17 11:00:15;;;;;;;10.85;1.50;;;12.80;91.10;;;;;;5536237;25;20832;-76
2024/04/17 11:02:41;;;;;;;3.72;1.35;;;12.80;92.20;;;;;;5545826;25;20449;-76
2024/04/17 11:05:06;;;;;;;12.85;1.40;;;12.80;92.20;;;;;;5539537;25;20000;-76
2024/04/17 11:07:32;;;;;;;9.00;1.40;;;12.90;91.70;;;;;;5538491;25;20004;-75
2024/04/17 11:09:58;;;;;;;8.45;1.45;;;13.00;91.10;;;;;;5548298;25;20076;-76
2024/04/17 11:12:24;;;;;;;17.65;1.75;;;13.10;90.60;;;;;;5536120;25;20026;-75
2024/04/17 11:14:59;;;;;;;7.20;1.40;;;13.30;91.00;;;;;;5548175;25;20009;-76
2024/04/17 11:17:25;;;;;;;6.53;1.35;;;13.10;92.20;;;;;;5558383;25;20369;-76
2024/04/17 11:19:51;;;;;;;6.30;1.65;;;13.10;92.40;;;;;;5543584;25;20001;-76
2024/04/17 11:22:17;;;;;;;7.97;1.15;;;13.10;91.40;;;;;;5521608;25;20002;-75
2024/04/17 11:24:47;;;;;;;3.47;1.23;;;13.20;91.00;;;;;;5546762;25;20358;-75
2024/04/17 11:27:15;;;;;;;5.05;1.23;;;13.40;90.50;;;;;;5525630;25;19992;-75
2024/04/17 11:29:47;;;;;;;6.25;1.67;;;13.40;91.60;;;;;;5541057;25;20055;-75
2024/04/17 11:32:14;;;;;;;7.43;1.33;;;13.40;91.90;;;;;;5536905;25;20009;-75
2024/04/17 11:34:40;;;;;;;12.32;1.38;;;13.40;92.20;;;;;;5521706;25;20069;-75
2024/04/17 11:37:06;;;;;;;10.07;1.35;;;13.40;91.60;;;;;;5522748;25;20440;-76
2024/04/17 11:39:34;;;;;;;5.93;1.70;;;13.50;91.60;;;;;;5523231;25;20556;-75
2024/04/17 11:42:03;;;;;;;5.35;0.93;;;13.50;90.90;;;;;;5532072;25;20016;-76
2024/04/17 11:44:38;;;;;;;12.35;1.27;;;13.60;90.90;;;;;;5524902;25;20016;-75
2024/04/17 11:47:14;;;;;;;8.50;2.22;;;13.60;90.50;;;;;;5526003;25;20001;-76
2024/04/17 11:49:40;;;;;;;7.72;1.25;;;13.70;91.00;;;;;;5526368;25;20476;-76
2024/04/17 11:52:09;;;;;;;4.32;1.00;;;13.50;92.60;;;;;;5524845;25;20009;-76
2024/04/17 11:54:35;;;;;;;7.03;1.25;;;13.40;91.80;;;;;;5520830;25;20016;-76
2024/04/17 11:57:01;;;;;;;5.10;1.13;;;13.50;92.80;;;;;;5520806;25;20556;-75
2024/04/17 11:59:26;;;;;;;1.67;0.73;;;13.40;92.50;;;;;;5526238;25;20013;-75
2024/04/17 12:01:53;;;;;;;3.47;1.27;;;13.50;92.10;;;;;;5518609;25;20936;-76
2024/04/17 12:04:19;;;;;;;6.30;1.20;;;13.50;91.70;;;;;;5532535;25;19997;-75
2024/04/17 12:06:46;;;;;;;5.45;1.30;;;13.60;91.50;;;;;;5541625;25;20604;-76
2024/04/17 12:09:12;;;;;;;4.75;1.13;;;13.60;91.40;;;;;;5522123;25;20017;-76
2024/04/17 12:11:38;;;;;;;7.35;1.25;;;13.60;92.20;;;;;;5536123;25;20513;-75
2024/04/17 12:14:03;;;;;;;8.43;1.23;;;13.60;91.80;;;;;;5541257;25;19996;-76
2024/04/17 12:16:29;;;;;;;8.23;1.10;;;13.60;92.30;;;;;;5552377;25;20004;-76
2024/04/17 12:18:55;;;;;;;5.97;1.13;;;13.60;91.80;;;;;;5538442;25;20406;-75
2024/04/17 12:21:20;;;;;;;6.22;1.33;;;13.60;91.60;;;;;;5519831;25;19997;-76
2024/04/17 12:23:50;;;;;;;61.08;3.28;;;13.70;90.30;;;;;;5520497;25;20001;-76
2024/04/17 12:29:02;;;;;;;6.88;1.25;;;13.80;91.00;;;;;;5543996;25;20012;-75
2024/04/17 12:31:27;;;;;;;6.82;1.02;;;13.90;90.70;;;;;;5547016;25;20317;-76
2024/04/17 12:33:53;;;;;;;8.52;1.48;;;14.00;91.10;;;;;;5544749;25;20008;-75
2024/04/17 12:36:19;;;;;;;10.43;1.45;;;14.00;90.60;;;;;;5535983;25;19997;-76
2024/04/17 12:38:44;;;;;;;65.80;2.45;;;14.00;90.30;;;;;;5547609;25;19993;-77
2024/04/17 12:41:10;;;;;;;6.65;1.50;;;14.20;89.90;;;;;;5545015;25;20000;-76
2024/04/17 12:43:36;;;;;;;6.18;1.17;;;14.20;89.10;;;;;;5549828;25;20001;-73